createdAt,value
2018-04-12T00:00:58.408Z,13.90
2018-04-12T00:03:28.462Z,13.90
2018-04-12T00:05:57.804Z,13.90
2018-04-12T00:08:27.115Z,13.90
2018-04-12T00:10:56.404Z,13.90
2018-04-12T00:13:25.720Z,13.80
2018-04-12T00:15:55.169Z,13.80
2018-04-12T00:18:24.466Z,13.80
2018-04-12T00:20:54.509Z,13.70
2018-04-12T00:23:23.806Z,13.70
2018-04-12T00:25:53.111Z,13.70
2018-04-12T00:28:22.394Z,13.60
2018-04-12T00:30:51.732Z,13.60
2018-04-12T00:33:21.038Z,13.50
2018-04-12T00:35:50.314Z,13.60
2018-04-12T00:38:19.615Z,13.50
2018-04-12T00:40:48.929Z,13.50
2018-04-12T00:43:18.297Z,13.40
2018-04-12T00:45:47.586Z,13.40
2018-04-12T00:48:16.868Z,13.40
2018-04-12T00:50:46.922Z,13.10
2018-04-12T00:53:33.949Z,13.20
2018-04-12T00:56:03.230Z,13.20
2018-04-12T00:58:32.521Z,13.10
2018-04-12T01:01:01.810Z,13.10
2018-04-12T01:28:18.451Z,12.50
2018-04-12T01:30:47.753Z,12.20
2018-04-12T01:33:17.793Z,12.20
2018-04-12T01:35:47.101Z,12.10
2018-04-12T01:38:16.395Z,12.20
2018-04-12T01:40:45.719Z,12.10
2018-04-12T01:43:15.013Z,12.10
2018-04-12T01:45:44.297Z,12.20
2018-04-12T01:48:13.610Z,12.20
2018-04-12T01:50:42.883Z,12.20
2018-04-12T01:53:13.670Z,12.10
2018-04-12T01:55:42.930Z,12.10
2018-04-12T01:58:12.992Z,12.10
2018-04-12T02:00:42.300Z,12.00
2018-04-12T02:03:11.620Z,12.10
2018-04-12T02:05:40.914Z,12.10
2018-04-12T02:08:10.206Z,12.10
2018-04-12T02:10:39.511Z,12.10
2018-04-12T02:13:08.802Z,12.10
2018-04-12T02:15:38.097Z,12.10
2018-04-12T02:18:07.418Z,12.10
2018-04-12T02:20:36.708Z,12.20
2018-04-12T02:23:06.002Z,12.20
2018-04-12T02:25:35.310Z,12.20
2018-04-12T02:28:04.624Z,12.30
2018-04-12T02:30:33.917Z,12.30
2018-04-12T02:33:03.578Z,12.20
2018-04-12T02:35:32.878Z,12.20
2018-04-12T02:38:02.197Z,12.20
2018-04-12T02:40:31.537Z,12.20
2018-04-12T02:43:00.833Z,12.10
2018-04-12T02:45:30.774Z,12.10
2018-04-12T02:48:01.846Z,12.20
2018-04-12T02:50:31.186Z,12.20
2018-04-12T02:53:00.563Z,12.20
2018-04-12T02:55:29.862Z,12.20
2018-04-12T02:57:59.180Z,12.20
2018-04-12T03:00:28.480Z,12.20
2018-04-12T03:02:57.819Z,12.10
2018-04-12T03:05:27.878Z,12.10
2018-04-12T03:07:57.195Z,12.10
2018-04-12T03:10:26.508Z,12.10
2018-04-12T03:12:55.814Z,12.10
2018-04-12T03:15:25.135Z,12.10
2018-04-12T03:17:54.468Z,12.00
2018-04-12T03:20:23.797Z,12.00
2018-04-12T03:22:53.155Z,12.00
2018-04-12T03:25:23.276Z,11.90
2018-04-12T03:27:52.558Z,11.90
2018-04-12T03:30:21.899Z,12.00
2018-04-12T03:32:51.194Z,11.80
2018-04-12T03:35:20.531Z,11.80
2018-04-12T03:37:49.842Z,11.80
2018-04-12T03:42:52.993Z,11.70
2018-04-12T03:45:22.316Z,11.70
2018-04-12T03:47:51.610Z,11.70
2018-04-12T03:50:20.924Z,11.70
2018-04-12T03:52:50.215Z,11.70
2018-04-12T03:55:19.511Z,11.70
2018-04-12T03:57:49.747Z,11.70
2018-04-12T04:00:19.042Z,11.80
2018-04-12T04:02:48.527Z,11.80
2018-04-12T04:05:17.827Z,11.80
2018-04-12T04:07:47.147Z,11.70
2018-04-12T04:10:16.445Z,11.70
2018-04-12T04:12:45.775Z,11.70
2018-04-12T04:15:32.690Z,11.70
2018-04-12T04:21:10.589Z,11.60
2018-04-12T04:23:39.880Z,11.60
2018-04-12T04:26:09.201Z,11.50
2018-04-12T04:28:38.595Z,11.60
2018-04-12T04:31:07.994Z,11.50
2018-04-12T04:33:37.376Z,11.50
2018-04-12T04:36:06.740Z,11.50
2018-04-12T04:38:36.213Z,11.50
2018-04-12T04:41:05.519Z,11.50
2018-04-12T04:43:34.813Z,11.50
2018-04-12T04:46:04.324Z,11.50
2018-04-12T04:48:33.774Z,11.50
2018-04-12T04:51:03.848Z,11.50
2018-04-12T04:53:33.137Z,11.50
2018-04-12T04:56:02.468Z,11.50
2018-04-12T04:58:31.792Z,11.50
2018-04-12T05:01:01.879Z,11.60
2018-04-12T05:03:31.176Z,11.60
2018-04-12T05:06:00.478Z,11.60
2018-04-12T05:08:29.802Z,11.60
2018-04-12T05:10:59.911Z,11.70
2018-04-12T05:13:29.208Z,11.70
2018-04-12T05:15:58.503Z,11.70
2018-04-12T05:18:27.811Z,11.70
2018-04-12T05:20:57.118Z,11.70
2018-04-12T05:23:26.432Z,11.70
2018-04-12T05:25:55.719Z,11.70
2018-04-12T05:28:25.047Z,11.70
2018-04-12T05:30:55.100Z,11.70
2018-04-12T05:33:25.041Z,11.60
2018-04-12T05:35:54.350Z,11.70
2018-04-12T05:38:23.666Z,11.70
2018-04-12T05:40:53.786Z,11.70
2018-04-12T05:43:23.065Z,11.70
2018-04-12T05:45:52.429Z,11.80
2018-04-12T05:48:21.733Z,11.90
2018-04-12T05:50:51.043Z,12.10
2018-04-12T05:53:20.346Z,12.40
2018-04-12T05:55:49.695Z,13.00
2018-04-12T05:58:19.774Z,14.30
2018-04-12T06:00:49.075Z,14.20
2018-04-12T06:03:19.023Z,14.80
2018-04-12T06:05:49.088Z,15.90
2018-04-12T06:08:18.398Z,15.90
2018-04-12T06:10:47.703Z,16.40
2018-04-12T06:13:17.020Z,16.80
2018-04-12T06:15:46.312Z,17.00
2018-04-12T06:18:15.642Z,17.10
2018-04-12T06:20:45.725Z,17.50
2018-04-12T06:23:15.038Z,17.40
2018-04-12T06:25:44.340Z,17.60
2018-04-12T06:28:13.632Z,17.70
2018-04-12T06:30:42.945Z,17.80
2018-04-12T06:33:12.235Z,18.00
2018-04-12T06:35:41.566Z,18.20
2018-04-12T06:38:10.854Z,18.30
2018-04-12T06:40:40.154Z,18.50
2018-04-12T06:43:09.452Z,18.50
2018-04-12T06:45:38.754Z,18.60
2018-04-12T06:48:08.048Z,18.40
2018-04-12T06:50:37.349Z,18.30
2018-04-12T06:53:06.652Z,18.30
2018-04-12T06:55:36.060Z,18.30
2018-04-12T06:58:05.365Z,18.20
2018-04-12T07:00:34.687Z,18.20
2018-04-12T07:03:05.362Z,17.90
2018-04-12T07:05:34.675Z,17.90
2018-04-12T07:08:03.981Z,17.70
2018-04-12T07:10:33.292Z,17.20
2018-04-12T07:13:02.593Z,16.90
2018-04-12T07:15:32.893Z,17.00
2018-04-12T07:18:03.174Z,17.00
2018-04-12T07:20:32.474Z,17.10
2018-04-12T07:23:01.753Z,17.10
2018-04-12T07:25:31.827Z,17.10
2018-04-12T07:28:01.113Z,17.10
2018-04-12T07:30:30.440Z,17.10
2018-04-12T07:32:59.730Z,17.10
2018-04-12T07:35:29.044Z,17.00
2018-04-12T07:37:58.344Z,16.90
2018-04-12T07:40:27.630Z,16.90
2018-04-12T07:42:56.957Z,16.90
2018-04-12T07:45:26.257Z,17.00
2018-04-12T07:47:55.564Z,17.00
2018-04-12T07:50:24.857Z,17.00
2018-04-12T07:52:54.159Z,17.00
2018-04-12T07:55:23.477Z,17.10
2018-04-12T07:57:52.779Z,17.10
2018-04-12T08:00:22.082Z,17.10
2018-04-12T08:02:52.166Z,17.20
2018-04-12T08:05:21.502Z,17.20
2018-04-12T08:07:51.614Z,17.20
2018-04-12T08:10:21.727Z,17.20
2018-04-12T08:12:51.043Z,17.20
2018-04-12T08:15:20.416Z,17.20
2018-04-12T08:17:49.727Z,17.30
2018-04-12T08:20:19.043Z,17.30
2018-04-12T08:22:48.342Z,17.40
2018-04-12T08:25:18.404Z,17.40
2018-04-12T08:27:47.687Z,17.40
2018-04-12T08:30:17.766Z,17.40
2018-04-12T08:32:47.298Z,17.40
2018-04-12T08:35:17.358Z,17.50
2018-04-12T08:37:46.662Z,17.50
2018-04-12T08:40:15.961Z,17.50
2018-04-12T08:42:45.339Z,17.50
2018-04-12T08:45:14.694Z,17.60
2018-04-12T08:47:43.993Z,17.50
2018-04-12T08:50:13.282Z,17.60
2018-04-12T08:52:42.572Z,17.60
2018-04-12T08:55:11.871Z,17.60
2018-04-12T08:57:41.175Z,17.60
2018-04-12T09:00:10.458Z,17.60
2018-04-12T09:02:39.760Z,17.60
2018-04-12T09:05:09.063Z,17.80
2018-04-12T09:07:38.369Z,17.80
2018-04-12T09:10:07.649Z,17.90
2018-04-12T09:12:36.940Z,18.00
2018-04-12T09:15:06.257Z,18.10
2018-04-12T09:17:36.289Z,18.30
2018-04-12T09:20:05.602Z,18.30
2018-04-12T09:22:34.882Z,18.40
2018-04-12T09:25:04.182Z,18.40
2018-04-12T09:27:33.478Z,18.40
2018-04-12T09:30:03.630Z,18.50
2018-04-12T09:32:32.938Z,18.60
2018-04-12T09:35:02.210Z,18.60
2018-04-12T09:37:31.493Z,18.80
2018-04-12T09:40:00.825Z,18.90
2018-04-12T09:42:30.092Z,19.00
2018-04-12T09:44:59.381Z,19.10
2018-04-12T09:47:28.674Z,19.10
2018-04-12T09:49:58.728Z,19.30
2018-04-12T09:52:28.031Z,19.20
2018-04-12T09:54:57.337Z,19.40
2018-04-12T09:57:26.619Z,19.50
2018-04-12T09:59:55.941Z,19.60
2018-04-12T10:02:28.925Z,19.60
2018-04-12T10:05:01.008Z,19.60
2018-04-12T10:07:35.815Z,19.60
2018-04-12T10:10:05.094Z,19.70
2018-04-12T10:12:34.394Z,19.80
2018-04-12T10:15:03.683Z,19.90
2018-04-12T10:17:33.766Z,20.10
2018-04-12T10:20:03.063Z,20.10
2018-04-12T10:22:32.362Z,20.20
2018-04-12T10:25:01.667Z,20.20
2018-04-12T10:27:30.946Z,20.30
2018-04-12T10:30:00.235Z,20.10
2018-04-12T10:32:29.521Z,20.10
2018-04-12T10:34:58.873Z,20.20
2018-04-12T10:37:28.172Z,20.30
2018-04-12T10:39:57.460Z,20.40
2018-04-12T10:42:26.757Z,20.40
2018-04-12T10:44:56.935Z,20.50
2018-04-12T10:47:27.108Z,20.50
2018-04-12T10:49:56.455Z,20.60
2018-04-12T10:52:25.799Z,20.60
2018-04-12T10:54:55.099Z,20.60
2018-04-12T10:57:24.447Z,20.70
2018-04-12T10:59:54.534Z,20.80
2018-04-12T11:02:23.883Z,20.80
2018-04-12T11:04:53.961Z,20.90
2018-04-12T11:07:23.329Z,20.90
2018-04-12T11:09:52.617Z,20.90
2018-04-12T11:12:22.333Z,20.90
2018-04-12T11:14:51.627Z,21.00
2018-04-12T11:17:20.905Z,21.20
2018-04-12T11:19:50.205Z,21.30
2018-04-12T11:24:55.836Z,21.60
2018-04-12T11:27:25.118Z,21.60
2018-04-12T11:29:54.403Z,21.70
2018-04-12T11:32:23.685Z,21.80
2018-04-12T11:34:52.978Z,21.90
2018-04-12T11:37:22.292Z,21.90
2018-04-12T11:39:51.587Z,22.00
2018-04-12T11:42:20.886Z,22.10
2018-04-12T11:44:50.166Z,22.10
2018-04-12T11:47:20.266Z,22.20
2018-04-12T11:49:49.568Z,22.20
2018-04-12T11:52:19.251Z,22.30
2018-04-12T11:54:48.702Z,22.30
2018-04-12T11:57:18.339Z,22.40
2018-04-12T11:59:47.768Z,22.40
2018-04-12T12:02:17.887Z,22.40
2018-04-12T12:04:48.628Z,22.40
2018-04-12T12:07:18.700Z,22.40
2018-04-12T12:09:48.976Z,22.40
2018-04-12T12:12:19.132Z,22.40
2018-04-12T12:14:49.286Z,22.40
2018-04-12T12:17:21.476Z,22.50
2018-04-12T12:19:51.412Z,22.50
2018-04-12T12:22:23.383Z,22.50
2018-04-12T12:24:54.049Z,22.50
2018-04-12T12:27:26.620Z,22.40
2018-04-12T12:29:59.597Z,22.40
2018-04-12T12:32:31.969Z,22.40
2018-04-12T12:35:02.724Z,22.20
2018-04-12T12:37:35.747Z,22.20
2018-04-12T12:40:06.066Z,22.00
2018-04-12T12:42:35.458Z,22.00
2018-04-12T12:45:04.735Z,21.80
2018-04-12T12:47:34.026Z,21.70
2018-04-12T12:50:03.337Z,21.70
2018-04-12T12:52:32.623Z,21.70
2018-04-12T12:55:02.701Z,21.90
2018-04-12T12:57:31.995Z,21.90
2018-04-12T13:00:01.266Z,21.90
2018-04-12T13:02:30.571Z,21.90
2018-04-12T13:04:59.851Z,21.80
2018-04-12T13:07:29.138Z,21.80
2018-04-12T13:09:59.253Z,21.90
2018-04-12T13:12:29.369Z,21.80
2018-04-12T13:14:59.752Z,21.80
2018-04-12T13:17:29.033Z,21.80
2018-04-12T13:19:58.353Z,21.80
2018-04-12T13:22:27.642Z,21.90
2018-04-12T13:24:56.972Z,22.00
2018-04-12T13:27:26.226Z,22.10
2018-04-12T13:29:55.524Z,22.20
2018-04-12T13:32:24.814Z,22.30
2018-04-12T13:34:54.651Z,22.20
2018-04-12T13:37:23.932Z,22.20
2018-04-12T13:39:53.224Z,22.00
2018-04-12T13:42:22.526Z,21.90
2018-04-12T13:44:51.818Z,21.60
2018-04-12T13:47:21.887Z,21.40
2018-04-12T13:49:51.172Z,21.30
2018-04-12T13:52:23.360Z,21.30
2018-04-12T13:54:53.595Z,21.30
2018-04-12T13:57:22.894Z,21.30
2018-04-12T13:59:52.169Z,21.30
2018-04-12T14:02:21.482Z,21.40
2018-04-12T14:04:50.776Z,21.40
2018-04-12T14:07:20.100Z,21.50
2018-04-12T14:09:49.360Z,21.50
2018-04-12T14:12:18.673Z,21.50
2018-04-12T14:14:47.969Z,21.40
2018-04-12T14:17:17.302Z,21.40
2018-04-12T14:19:46.542Z,21.30
2018-04-12T14:22:15.895Z,21.20
2018-04-12T14:24:45.169Z,21.20
2018-04-12T14:27:14.449Z,21.20
2018-04-12T14:29:43.773Z,21.20
2018-04-12T14:32:13.036Z,21.10
2018-04-12T14:34:42.428Z,21.10
2018-04-12T14:37:11.795Z,21.20
2018-04-12T14:39:41.129Z,21.20
2018-04-12T14:42:11.180Z,21.40
2018-04-12T14:44:40.562Z,21.30
2018-04-12T14:47:10.614Z,21.30
2018-04-12T14:49:39.911Z,21.30
2018-04-12T14:52:09.197Z,21.30
2018-04-12T14:54:38.487Z,21.40
2018-04-12T14:57:07.842Z,21.50
2018-04-12T14:59:37.143Z,21.40
2018-04-12T15:02:07.438Z,21.50
2018-04-12T15:04:37.286Z,21.60
2018-04-12T15:07:06.578Z,21.50
2018-04-12T15:09:35.859Z,21.60
2018-04-12T15:12:05.243Z,21.70
2018-04-12T15:14:35.200Z,21.70
2018-04-12T15:17:07.146Z,21.80
2018-04-12T15:19:36.532Z,21.90
2018-04-12T15:22:05.835Z,21.60
2018-04-12T15:24:35.112Z,21.30
2018-04-12T15:27:04.414Z,21.30
2018-04-12T15:29:33.771Z,21.10
2018-04-12T15:32:03.164Z,20.90
2018-04-12T15:34:32.404Z,21.00
2018-04-12T15:37:01.775Z,21.10
2018-04-12T15:39:31.202Z,21.10
2018-04-12T15:42:00.522Z,21.20
2018-04-12T15:44:29.818Z,21.30
2018-04-12T15:46:59.878Z,21.50
2018-04-12T15:49:29.156Z,21.40
2018-04-12T15:51:58.460Z,21.50
2018-04-12T15:54:27.756Z,21.60
2018-04-12T15:56:57.049Z,21.60
2018-04-12T15:59:26.335Z,21.70
2018-04-12T16:01:55.642Z,21.80
2018-04-12T16:04:24.963Z,21.80
2018-04-12T16:06:54.283Z,21.80
2018-04-12T16:09:23.560Z,21.80
2018-04-12T16:11:52.872Z,21.80
2018-04-12T16:14:22.184Z,21.80
2018-04-12T16:16:51.479Z,21.70
2018-04-12T16:19:20.770Z,21.60
2018-04-12T16:21:50.059Z,21.60
2018-04-12T16:24:19.347Z,21.50
2018-04-12T16:26:48.635Z,21.50
2018-04-12T16:29:18.726Z,21.50
2018-04-12T16:31:48.002Z,21.40
2018-04-12T16:34:17.286Z,21.50
2018-04-12T16:36:46.642Z,21.40
2018-04-12T16:39:15.927Z,21.30
2018-04-12T16:41:45.229Z,21.30
2018-04-12T16:44:14.507Z,21.20
2018-04-12T16:46:43.791Z,21.20
2018-04-12T16:49:13.088Z,21.20
2018-04-12T16:51:42.375Z,21.20
2018-04-12T16:54:11.642Z,21.10
2018-04-12T16:56:41.688Z,21.10
2018-04-12T16:59:10.996Z,21.10
2018-04-12T17:01:40.279Z,21.10
2018-04-12T17:04:09.592Z,21.10
2018-04-12T17:06:38.874Z,21.00
2018-04-12T17:09:08.925Z,21.00
2018-04-12T17:11:38.215Z,20.90
2018-04-12T17:14:07.484Z,21.00
2018-04-12T17:16:37.559Z,21.00
2018-04-12T17:19:07.485Z,21.00
2018-04-12T17:21:36.782Z,21.00
2018-04-12T17:24:06.060Z,20.90
2018-04-12T17:26:35.378Z,20.90
2018-04-12T17:29:04.664Z,20.90
2018-04-12T17:31:33.947Z,20.90
2018-04-12T17:34:03.245Z,20.90
2018-04-12T17:36:32.511Z,20.90
2018-04-12T17:39:01.821Z,20.90
2018-04-12T17:41:31.098Z,20.80
2018-04-12T17:44:00.385Z,20.80
2018-04-12T17:46:29.671Z,20.80
2018-04-12T17:48:58.967Z,20.70
2018-04-12T17:51:28.258Z,20.70
2018-04-12T17:53:57.543Z,20.60
2018-04-12T17:56:26.847Z,20.60
2018-04-12T17:58:56.150Z,20.50
2018-04-12T18:01:25.427Z,20.40
2018-04-12T18:03:55.504Z,20.20
2018-04-12T18:06:24.794Z,20.20
2018-04-12T18:08:54.085Z,20.10
2018-04-12T18:11:23.390Z,20.10
2018-04-12T18:13:53.461Z,20.00
2018-04-12T18:16:23.512Z,19.80
2018-04-12T18:18:52.818Z,19.80
2018-04-12T18:21:22.118Z,19.60
2018-04-12T18:23:51.422Z,19.60
2018-04-12T18:26:21.375Z,19.50
2018-04-12T18:28:50.617Z,19.50
2018-04-12T18:31:19.929Z,19.40
2018-04-12T18:33:49.234Z,19.30
2018-04-12T18:36:18.534Z,19.20
2018-04-12T18:38:47.821Z,19.10
2018-04-12T18:41:17.152Z,19.00
2018-04-12T18:43:46.403Z,18.90
2018-04-12T18:46:16.473Z,18.80
2018-04-12T18:48:45.818Z,18.80
2018-04-12T18:51:15.880Z,18.60
2018-04-12T18:53:45.172Z,18.60
2018-04-12T18:56:14.462Z,18.50
2018-04-12T18:58:43.768Z,18.50
2018-04-12T19:01:13.068Z,18.50
2018-04-12T19:03:42.405Z,18.50
2018-04-12T19:06:11.745Z,18.50
2018-04-12T19:08:41.808Z,18.30
2018-04-12T19:11:11.105Z,18.30
2018-04-12T19:13:40.418Z,18.20
2018-04-12T19:16:09.728Z,18.20
2018-04-12T19:18:39.164Z,18.00
2018-04-12T19:21:08.475Z,17.90
2018-04-12T19:23:38.553Z,17.80
2018-04-12T19:26:07.842Z,17.70
2018-04-12T19:28:37.153Z,17.70
2018-04-12T19:31:06.441Z,17.60
2018-04-12T19:33:35.736Z,17.50
2018-04-12T19:36:05.041Z,17.40
2018-04-12T19:38:34.366Z,17.40
2018-04-12T19:41:03.668Z,17.30
2018-04-12T19:43:32.954Z,17.30
2018-04-12T19:46:02.251Z,17.30
2018-04-12T19:48:31.543Z,17.20
2018-04-12T19:51:00.845Z,17.20
2018-04-12T19:53:30.150Z,17.20
2018-04-12T19:55:59.442Z,17.10
2018-04-12T19:58:29.560Z,17.00
2018-04-12T20:00:59.582Z,16.90
2018-04-12T20:03:28.889Z,16.90
2018-04-12T20:05:58.180Z,16.80
2018-04-12T20:08:28.231Z,16.60
2018-04-12T20:10:57.907Z,16.60
2018-04-12T20:13:27.177Z,16.50
2018-04-12T20:15:56.471Z,16.40
2018-04-12T20:18:25.775Z,16.40
2018-04-12T20:20:55.107Z,16.40
2018-04-12T20:23:24.459Z,16.30
2018-04-12T20:25:53.759Z,16.30
2018-04-12T20:28:23.829Z,16.10
2018-04-12T20:30:53.124Z,16.10
2018-04-12T20:33:22.407Z,16.10
2018-04-12T20:35:51.713Z,16.00
2018-04-12T20:38:21.005Z,16.00
2018-04-12T20:40:50.289Z,15.90
2018-04-12T20:43:19.624Z,15.90
2018-04-12T20:45:48.942Z,15.80
2018-04-12T20:48:19.042Z,15.70
2018-04-12T20:50:48.367Z,15.60
2018-04-12T20:53:17.669Z,15.50
2018-04-12T20:55:46.952Z,15.50
2018-04-12T20:58:16.254Z,15.50
2018-04-12T21:00:45.548Z,15.50
2018-04-12T21:03:14.854Z,15.40
2018-04-12T21:05:44.148Z,15.40
2018-04-12T21:08:13.481Z,15.40
2018-04-12T21:10:42.751Z,15.30
2018-04-12T21:13:12.037Z,15.20
2018-04-12T21:15:41.321Z,15.20
2018-04-12T21:18:10.615Z,15.20
2018-04-12T21:20:39.933Z,15.20
2018-04-12T21:23:09.222Z,15.10
2018-04-12T21:25:38.510Z,15.00
2018-04-12T21:28:08.579Z,14.90
2018-04-12T21:30:37.872Z,14.90
2018-04-12T21:33:07.241Z,14.90
2018-04-12T21:35:37.398Z,14.80
2018-04-12T21:38:06.700Z,14.80
2018-04-12T21:40:35.983Z,14.70
2018-04-12T21:43:05.291Z,14.60
2018-04-12T21:45:34.600Z,14.60
2018-04-12T21:48:03.918Z,14.40
2018-04-12T21:50:33.197Z,14.40
2018-04-12T21:53:02.508Z,14.30
2018-04-12T21:55:31.803Z,14.20
2018-04-12T21:58:01.090Z,14.10
2018-04-12T22:00:30.389Z,14.10
2018-04-12T22:02:59.690Z,14.20
2018-04-12T22:05:29.012Z,14.10
2018-04-12T22:07:58.306Z,14.10
2018-04-12T22:10:27.618Z,14.00
2018-04-12T22:12:56.918Z,13.90
2018-04-12T22:15:26.224Z,13.80
2018-04-12T22:17:55.529Z,13.80
2018-04-12T22:20:24.831Z,13.80
2018-04-12T22:22:54.127Z,13.70
2018-04-12T22:25:23.459Z,13.60
2018-04-12T22:27:53.543Z,13.60
2018-04-12T22:30:22.838Z,13.50
2018-04-12T22:32:52.134Z,13.50
2018-04-12T22:35:21.427Z,13.50
2018-04-12T22:37:50.743Z,13.40
2018-04-12T22:40:20.036Z,13.40
2018-04-12T22:42:49.319Z,13.30
2018-04-12T22:45:18.182Z,13.30
2018-04-12T22:47:48.126Z,13.20
2018-04-12T22:50:17.437Z,13.20
2018-04-12T22:52:46.347Z,13.20
2018-04-12T22:55:15.512Z,13.20
2018-04-12T22:57:44.805Z,13.10
2018-04-12T23:00:14.122Z,13.20
2018-04-12T23:02:43.173Z,13.10
2018-04-12T23:05:13.218Z,13.00
2018-04-12T23:07:42.541Z,13.00
2018-04-12T23:10:11.840Z,12.90
2018-04-12T23:12:41.135Z,12.90
2018-04-12T23:15:10.441Z,12.90
2018-04-12T23:17:39.735Z,12.80
2018-04-12T23:22:44.607Z,12.80
2018-04-12T23:25:15.408Z,12.70
2018-04-12T23:27:44.722Z,12.70
2018-04-12T23:30:14.058Z,12.70
2018-04-12T23:32:43.352Z,12.70
2018-04-12T23:35:12.647Z,12.60
2018-04-12T23:37:41.952Z,12.60
2018-04-12T23:40:11.290Z,12.60
2018-04-12T23:42:41.411Z,12.50
2018-04-12T23:45:10.722Z,12.50
2018-04-12T23:47:40.044Z,12.50
2018-04-12T23:50:09.410Z,12.40
2018-04-12T23:52:39.471Z,12.30
2018-04-12T23:55:08.765Z,12.30
2018-04-12T23:57:38.063Z,12.30
